createdAt,value
2018-05-03T00:00:34.276Z,0.00
2018-05-03T00:01:34.277Z,0.00
2018-05-03T00:02:34.247Z,0.00
2018-05-03T00:03:34.255Z,0.00
2018-05-03T00:04:34.250Z,0.00
2018-05-03T00:05:34.252Z,0.00
2018-05-03T00:06:34.251Z,0.00
2018-05-03T00:07:34.231Z,0.00
2018-05-03T00:08:34.232Z,0.00
2018-05-03T00:09:34.224Z,0.00
2018-05-03T00:10:34.240Z,0.00
2018-05-03T00:11:34.212Z,0.00
2018-05-03T00:12:34.205Z,0.00
2018-05-03T00:13:34.227Z,0.00
2018-05-03T00:14:34.204Z,0.00
2018-05-03T00:15:34.205Z,0.00
2018-05-03T00:16:34.236Z,0.00
2018-05-03T00:17:34.192Z,0.00
2018-05-03T00:18:34.205Z,0.00
2018-05-03T00:19:34.185Z,0.00
2018-05-03T00:20:34.174Z,0.00
2018-05-03T00:21:34.174Z,0.00
2018-05-03T00:22:34.164Z,0.00
2018-05-03T00:23:34.159Z,0.00
2018-05-03T00:24:34.156Z,0.00
2018-05-03T00:25:34.148Z,0.00
2018-05-03T00:26:34.148Z,0.00
2018-05-03T00:27:34.140Z,0.00
2018-05-03T00:28:34.137Z,0.00
2018-05-03T00:29:34.135Z,0.00
2018-05-03T00:30:34.131Z,0.00
2018-05-03T00:31:34.126Z,0.00
2018-05-03T00:32:34.109Z,0.00
2018-05-03T00:33:34.118Z,0.00
2018-05-03T00:34:34.137Z,0.00
2018-05-03T00:35:34.104Z,0.00
2018-05-03T00:36:34.093Z,0.00
2018-05-03T00:37:34.094Z,0.00
2018-05-03T00:38:34.108Z,0.00
2018-05-03T00:39:34.093Z,0.00
2018-05-03T00:40:34.085Z,0.00
2018-05-03T00:41:34.079Z,0.00
2018-05-03T00:42:34.072Z,0.00
2018-05-03T00:43:34.072Z,0.00
2018-05-03T00:44:34.065Z,0.00
2018-05-03T00:45:34.048Z,0.00
2018-05-03T00:46:34.043Z,0.00
2018-05-03T00:47:34.050Z,0.00
2018-05-03T00:48:34.047Z,0.00
2018-05-03T00:49:34.037Z,0.00
2018-05-03T00:50:34.036Z,0.00
2018-05-03T00:51:34.025Z,0.00
2018-05-03T00:52:34.026Z,0.00
2018-05-03T00:53:34.025Z,0.00
2018-05-03T00:54:34.032Z,0.00
2018-05-03T00:55:34.008Z,0.00
2018-05-03T00:56:34.002Z,0.00
2018-05-03T00:57:33.996Z,0.00
2018-05-03T00:58:33.993Z,0.00
2018-05-03T00:59:33.986Z,0.00
2018-05-03T01:00:33.995Z,0.00
2018-05-03T01:01:34.029Z,0.00
2018-05-03T01:02:33.982Z,0.00
2018-05-03T01:03:33.971Z,0.00
2018-05-03T01:04:33.975Z,0.00
2018-05-03T01:05:33.962Z,0.00
2018-05-03T01:06:33.958Z,0.00
2018-05-03T01:07:33.948Z,0.00
2018-05-03T01:08:34.017Z,0.00
2018-05-03T01:09:33.943Z,0.00
2018-05-03T01:10:33.938Z,0.00
2018-05-03T01:11:33.940Z,0.00
2018-05-03T01:12:33.997Z,0.00
2018-05-03T01:13:33.920Z,0.00
2018-05-03T01:14:33.921Z,0.00
2018-05-03T01:15:33.913Z,0.00
2018-05-03T01:16:33.938Z,0.00
2018-05-03T01:17:33.910Z,0.00
2018-05-03T01:18:33.897Z,0.00
2018-05-03T01:19:33.895Z,0.00
2018-05-03T01:20:33.894Z,0.00
2018-05-03T01:21:33.885Z,0.00
2018-05-03T01:22:33.868Z,0.00
2018-05-03T01:23:33.881Z,0.00
2018-05-03T01:24:33.869Z,0.00
2018-05-03T01:25:33.871Z,0.00
2018-05-03T01:26:33.858Z,0.00
2018-05-03T01:27:33.847Z,0.00
2018-05-03T01:28:33.854Z,0.00
2018-05-03T01:29:33.847Z,0.00
2018-05-03T02:03:12.403Z,0.00
2018-05-03T02:04:12.362Z,0.00
2018-05-03T02:06:05.277Z,0.00
2018-05-03T02:07:05.251Z,0.00
2018-05-03T02:08:58.170Z,0.00
2018-05-03T02:09:58.137Z,0.00
2018-05-03T02:11:51.046Z,0.00
2018-05-03T02:12:51.006Z,0.00
2018-05-03T02:14:43.983Z,0.00
2018-05-03T02:15:43.954Z,0.00
2018-05-03T02:17:36.924Z,0.00
2018-05-03T02:18:36.895Z,0.00
2018-05-03T02:20:30.021Z,0.00
2018-05-03T02:21:29.987Z,0.00
2018-05-03T02:23:22.960Z,0.00
2018-05-03T02:24:22.929Z,0.00
2018-05-03T02:26:15.877Z,0.00
2018-05-03T02:27:15.862Z,0.00
2018-05-03T02:29:08.789Z,0.00
2018-05-03T02:30:08.762Z,0.00
2018-05-03T02:32:01.674Z,0.00
2018-05-03T02:33:01.662Z,0.00
2018-05-03T02:34:54.587Z,0.00
2018-05-03T02:35:54.561Z,0.00
2018-05-03T02:37:47.508Z,0.00
2018-05-03T02:38:47.483Z,0.00
2018-05-03T02:40:40.471Z,0.00
2018-05-03T02:41:40.436Z,0.00
2018-05-03T02:43:33.446Z,0.00
2018-05-03T02:44:33.416Z,0.00
2018-05-03T02:46:26.397Z,0.00
2018-05-03T02:47:26.349Z,0.00
2018-05-03T02:49:19.343Z,0.00
2018-05-03T02:50:19.310Z,0.00
2018-05-03T02:52:12.267Z,0.00
2018-05-03T02:53:12.235Z,0.00
2018-05-03T02:55:05.233Z,0.00
2018-05-03T02:56:05.199Z,0.00
2018-05-03T02:57:58.169Z,0.00
2018-05-03T02:58:58.144Z,0.00
2018-05-03T03:00:51.132Z,0.00
2018-05-03T03:01:51.104Z,0.00
2018-05-03T03:03:44.054Z,0.00
2018-05-03T03:04:44.002Z,0.00
2018-05-03T03:06:36.987Z,0.00
2018-05-03T03:07:36.981Z,0.00
2018-05-03T03:09:29.946Z,0.00
2018-05-03T03:10:29.914Z,0.00
2018-05-03T03:12:22.847Z,0.00
2018-05-03T03:13:22.810Z,0.00
2018-05-03T03:15:15.724Z,0.00
2018-05-03T03:16:15.692Z,0.00
2018-05-03T03:18:08.651Z,0.00
2018-05-03T03:19:08.622Z,0.00
2018-05-03T03:21:01.546Z,0.00
2018-05-03T03:22:01.605Z,0.00
2018-05-03T03:23:54.488Z,0.00
2018-05-03T03:24:54.459Z,0.00
2018-05-03T03:26:47.418Z,0.00
2018-05-03T03:27:47.392Z,0.00
2018-05-03T03:29:40.385Z,0.00
2018-05-03T03:30:40.356Z,0.00
2018-05-03T03:32:33.310Z,0.00
2018-05-03T03:33:33.300Z,0.00
2018-05-03T03:35:26.286Z,0.00
2018-05-03T03:36:26.257Z,0.00
2018-05-03T03:38:19.196Z,0.00
2018-05-03T03:39:19.171Z,0.00
2018-05-03T03:41:12.141Z,0.00
2018-05-03T03:42:12.091Z,0.00
2018-05-03T03:44:05.042Z,0.00
2018-05-03T03:45:05.034Z,0.00
2018-05-03T03:46:58.006Z,0.00
2018-05-03T03:47:57.964Z,0.00
2018-05-03T03:49:50.885Z,0.00
2018-05-03T03:50:50.861Z,0.00
2018-05-03T03:52:43.823Z,0.00
2018-05-03T03:53:43.797Z,0.00
2018-05-03T03:55:36.760Z,0.00
2018-05-03T03:56:36.729Z,0.00
2018-05-03T03:58:29.646Z,0.00
2018-05-03T03:59:29.640Z,0.00
2018-05-03T04:01:22.596Z,0.00
2018-05-03T04:02:22.565Z,0.00
2018-05-03T04:04:15.536Z,0.00
2018-05-03T04:05:15.522Z,0.00
2018-05-03T04:07:08.482Z,0.00
2018-05-03T04:08:08.457Z,0.00
2018-05-03T04:10:01.430Z,0.00
2018-05-03T04:11:01.404Z,0.00
2018-05-03T04:12:54.351Z,0.00
2018-05-03T04:13:54.315Z,0.00
2018-05-03T04:15:47.235Z,5.63
2018-05-03T04:16:47.218Z,5.63
2018-05-03T04:18:40.146Z,5.63
2018-05-03T04:19:40.118Z,5.63
2018-05-03T04:21:33.029Z,5.63
2018-05-03T04:22:33.169Z,5.63
2018-05-03T04:24:25.972Z,5.63
2018-05-03T04:25:25.899Z,5.63
2018-05-03T04:27:18.876Z,5.63
2018-05-03T04:28:18.819Z,5.63
2018-05-03T04:30:11.788Z,11.25
2018-05-03T04:31:11.767Z,11.25
2018-05-03T04:33:04.688Z,11.25
2018-05-03T04:34:04.654Z,11.25
2018-05-03T04:35:57.660Z,11.25
2018-05-03T04:36:57.635Z,11.25
2018-05-03T04:38:50.559Z,11.25
2018-05-03T04:39:50.529Z,11.25
2018-05-03T04:41:43.533Z,11.25
2018-05-03T04:42:43.451Z,11.25
2018-05-03T04:44:36.384Z,11.25
2018-05-03T04:45:36.367Z,11.25
2018-05-03T04:47:29.308Z,11.25
2018-05-03T04:48:29.271Z,11.25
2018-05-03T04:50:22.204Z,16.88
2018-05-03T04:51:22.172Z,16.88
2018-05-03T04:53:15.104Z,16.88
2018-05-03T04:54:15.084Z,16.88
2018-05-03T04:56:07.989Z,16.88
2018-05-03T04:57:07.968Z,16.88
2018-05-03T04:59:00.913Z,16.88
2018-05-03T05:00:00.888Z,16.88
2018-05-03T05:01:53.815Z,11.25
2018-05-03T05:02:53.796Z,11.25
2018-05-03T05:04:46.908Z,11.25
2018-05-03T05:05:46.815Z,16.88
2018-05-03T05:07:39.730Z,16.88
2018-05-03T05:08:39.717Z,16.88
2018-05-03T05:10:32.718Z,11.25
2018-05-03T05:11:32.643Z,16.88
2018-05-03T05:13:25.593Z,16.88
2018-05-03T05:14:25.563Z,16.88
2018-05-03T05:16:18.556Z,16.88
2018-05-03T05:17:18.547Z,16.88
2018-05-03T05:19:11.508Z,22.50
2018-05-03T05:20:11.480Z,22.50
2018-05-03T05:22:04.384Z,22.50
2018-05-03T05:23:04.362Z,28.13
2018-05-03T05:24:57.334Z,28.13
2018-05-03T05:25:57.313Z,28.13
2018-05-03T05:27:50.359Z,33.75
2018-05-03T05:28:50.331Z,39.38
2018-05-03T05:30:43.225Z,45.00
2018-05-03T05:31:43.135Z,45.00
2018-05-03T05:32:43.125Z,45.00
2018-05-03T05:33:43.124Z,45.00
2018-05-03T05:34:43.135Z,45.00
2018-05-03T05:35:43.115Z,50.63
2018-05-03T05:36:43.124Z,50.63
2018-05-03T05:37:43.109Z,61.88
2018-05-03T05:38:43.144Z,67.50
2018-05-03T05:39:43.088Z,73.13
2018-05-03T05:40:43.093Z,73.13
2018-05-03T05:41:43.085Z,78.75
2018-05-03T05:42:43.084Z,78.75
2018-05-03T05:43:43.135Z,84.38
2018-05-03T05:44:43.070Z,84.38
2018-05-03T05:45:43.083Z,90.00
2018-05-03T05:46:43.076Z,101.25
2018-05-03T05:47:43.056Z,112.50
2018-05-03T05:48:43.048Z,129.38
2018-05-03T05:49:43.052Z,140.63
2018-05-03T05:50:43.053Z,146.25
2018-05-03T05:51:43.047Z,151.88
2018-05-03T05:52:43.067Z,157.50
2018-05-03T05:53:43.031Z,157.50
2018-05-03T05:54:43.037Z,157.50
2018-05-03T05:55:43.029Z,157.50
2018-05-03T05:56:43.064Z,151.88
2018-05-03T05:57:43.017Z,151.88
2018-05-03T05:58:43.004Z,157.50
2018-05-03T05:59:42.999Z,157.50
2018-05-03T06:00:42.998Z,157.50
2018-05-03T06:01:43.001Z,151.88
2018-05-03T06:02:42.989Z,151.88
2018-05-03T06:03:43.063Z,146.25
2018-05-03T06:04:42.979Z,140.63
2018-05-03T06:05:42.977Z,135.00
2018-05-03T06:06:42.982Z,140.63
2018-05-03T06:07:42.964Z,146.25
2018-05-03T06:08:42.960Z,151.88
2018-05-03T06:09:42.957Z,151.88
2018-05-03T06:10:42.967Z,151.88
2018-05-03T06:11:42.951Z,151.88
2018-05-03T06:12:42.951Z,140.63
2018-05-03T06:13:43.697Z,135.00
2018-05-03T06:14:42.930Z,129.38
2018-05-03T06:15:42.941Z,129.38
2018-05-03T06:16:42.915Z,123.75
2018-05-03T06:17:42.926Z,123.75
2018-05-03T06:18:42.931Z,129.38
2018-05-03T06:19:42.927Z,135.00
2018-05-03T06:20:42.919Z,146.25
2018-05-03T06:21:42.901Z,157.50
2018-05-03T06:22:42.897Z,174.38
2018-05-03T06:23:42.893Z,180.00
2018-05-03T06:24:42.897Z,191.25
2018-05-03T06:25:42.876Z,196.88
2018-05-03T06:26:42.889Z,202.50
2018-05-03T06:27:43.701Z,208.13
2018-05-03T06:28:42.875Z,213.75
2018-05-03T06:29:42.868Z,208.13
2018-05-03T06:30:42.865Z,208.13
2018-05-03T06:31:42.857Z,208.13
2018-05-03T06:32:42.854Z,213.75
2018-05-03T06:33:42.856Z,219.38
2018-05-03T06:34:42.847Z,219.38
2018-05-03T06:35:42.832Z,225.00
2018-05-03T06:36:43.685Z,236.25
2018-05-03T06:37:42.828Z,241.88
2018-05-03T06:38:42.826Z,258.75
2018-05-03T06:39:42.816Z,281.25
2018-05-03T06:40:42.819Z,298.13
2018-05-03T06:41:42.825Z,315.00
2018-05-03T06:42:42.828Z,315.00
2018-05-03T06:43:42.819Z,309.38
2018-05-03T06:44:42.797Z,298.13
2018-05-03T06:45:43.706Z,292.50
2018-05-03T06:46:42.802Z,286.88
2018-05-03T06:47:42.790Z,286.88
2018-05-03T06:48:42.787Z,292.50
2018-05-03T06:49:42.797Z,298.13
2018-05-03T06:50:42.775Z,303.75
2018-05-03T06:51:42.777Z,315.00
2018-05-03T06:52:42.806Z,326.25
2018-05-03T06:53:42.768Z,331.88
2018-05-03T06:54:42.774Z,331.88
2018-05-03T06:55:42.791Z,331.88
2018-05-03T06:56:42.754Z,326.25
2018-05-03T06:57:42.758Z,326.25
2018-05-03T06:58:42.769Z,326.25
2018-05-03T06:59:42.773Z,331.88
2018-05-03T07:00:42.747Z,337.50
2018-05-03T07:01:42.740Z,348.75
2018-05-03T07:02:42.738Z,365.63
2018-05-03T07:03:42.736Z,393.75
2018-05-03T07:04:42.740Z,416.25
2018-05-03T07:05:42.737Z,427.50
2018-05-03T07:06:42.717Z,438.75
2018-05-03T07:07:42.708Z,444.38
2018-05-03T07:08:42.738Z,455.63
2018-05-03T07:09:42.711Z,455.63
2018-05-03T07:10:42.736Z,472.50
2018-05-03T07:11:42.707Z,495.00
2018-05-03T07:12:42.704Z,523.13
2018-05-03T07:13:42.704Z,534.38
2018-05-03T07:14:42.696Z,534.38
2018-05-03T07:15:42.692Z,528.75
2018-05-03T07:16:42.685Z,523.13
2018-05-03T07:17:42.686Z,523.13
2018-05-03T07:18:42.702Z,523.13
2018-05-03T07:19:42.676Z,528.75
2018-05-03T07:20:42.674Z,540.00
2018-05-03T07:21:42.706Z,545.63
2018-05-03T07:22:42.669Z,551.25
2018-05-03T07:23:42.683Z,540.00
2018-05-03T07:24:42.663Z,523.13
2018-05-03T07:25:42.659Z,500.63
2018-05-03T07:26:42.649Z,483.75
2018-05-03T07:27:42.656Z,461.25
2018-05-03T07:28:42.657Z,450.00
2018-05-03T07:29:42.644Z,444.38
2018-05-03T07:30:42.659Z,455.63
2018-05-03T07:31:42.663Z,472.50
2018-05-03T07:32:42.635Z,495.00
2018-05-03T07:33:42.635Z,511.88
2018-05-03T07:34:42.654Z,523.13
2018-05-03T07:35:42.630Z,528.75
2018-05-03T07:36:42.625Z,528.75
2018-05-03T07:37:42.623Z,517.50
2018-05-03T07:38:42.617Z,511.88
2018-05-03T07:39:42.613Z,506.25
2018-05-03T07:40:42.713Z,500.63
2018-05-03T07:41:42.637Z,489.38
2018-05-03T07:42:42.622Z,489.38
2018-05-03T07:43:42.610Z,495.00
2018-05-03T07:44:42.600Z,500.63
2018-05-03T07:45:42.599Z,511.88
2018-05-03T07:46:42.597Z,523.13
2018-05-03T07:47:42.580Z,540.00
2018-05-03T07:48:42.590Z,540.00
2018-05-03T07:49:42.586Z,545.63
2018-05-03T07:50:42.582Z,556.88
2018-05-03T07:51:42.590Z,573.75
2018-05-03T07:52:42.574Z,585.00
2018-05-03T07:53:42.576Z,601.88
2018-05-03T07:54:42.572Z,618.75
2018-05-03T07:55:43.226Z,618.75
2018-05-03T07:56:42.625Z,607.50
2018-05-03T07:57:42.553Z,596.25
2018-05-03T07:58:42.551Z,585.00
2018-05-03T07:59:42.554Z,573.75
2018-05-03T08:00:42.557Z,579.38
2018-05-03T08:01:42.553Z,596.25
2018-05-03T08:02:42.564Z,630.00
2018-05-03T08:03:42.635Z,658.13
2018-05-03T08:04:43.202Z,675.00
2018-05-03T08:05:42.640Z,669.38
2018-05-03T08:06:42.534Z,658.13
2018-05-03T08:07:42.536Z,658.13
2018-05-03T08:08:42.519Z,658.13
2018-05-03T08:09:42.531Z,663.75
2018-05-03T08:10:42.526Z,658.13
2018-05-03T08:11:42.526Z,635.63
2018-05-03T08:12:42.630Z,618.75
2018-05-03T08:13:42.537Z,596.25
2018-05-03T08:14:42.514Z,585.00
2018-05-03T08:15:42.503Z,568.13
2018-05-03T08:16:42.505Z,568.13
2018-05-03T08:17:42.509Z,585.00
2018-05-03T08:18:42.499Z,590.63
2018-05-03T08:19:42.505Z,590.63
2018-05-03T08:20:42.494Z,579.38
2018-05-03T08:21:42.516Z,585.00
2018-05-03T08:22:42.484Z,613.13
2018-05-03T08:23:42.493Z,652.50
2018-05-03T08:24:42.492Z,708.75
2018-05-03T08:25:42.485Z,742.50
2018-05-03T08:26:42.498Z,759.38
2018-05-03T08:27:42.489Z,765.00
2018-05-03T08:28:42.478Z,770.63
2018-05-03T08:29:43.792Z,793.13
2018-05-03T08:30:42.472Z,838.13
2018-05-03T08:31:42.480Z,905.63
2018-05-03T08:32:42.464Z,973.13
2018-05-03T08:33:42.467Z,1012.50
2018-05-03T08:34:42.456Z,995.63
2018-05-03T08:35:42.470Z,973.13
2018-05-03T08:36:42.503Z,950.63
2018-05-03T08:37:42.454Z,933.75
2018-05-03T08:38:42.451Z,950.63
2018-05-03T08:39:43.142Z,973.13
2018-05-03T08:40:43.140Z,995.63
2018-05-03T08:41:43.146Z,1018.13
2018-05-03T08:42:42.439Z,1046.25
2018-05-03T08:43:42.454Z,1057.50
2018-05-03T08:44:42.441Z,1080.00
2018-05-03T08:45:42.424Z,1096.88
2018-05-03T08:46:42.459Z,1113.75
2018-05-03T08:47:42.428Z,1125.00
2018-05-03T08:48:42.430Z,1147.50
2018-05-03T08:49:42.432Z,1158.75
2018-05-03T08:50:43.219Z,1153.13
2018-05-03T08:51:42.430Z,1113.75
2018-05-03T08:52:42.425Z,1063.13
2018-05-03T08:53:42.428Z,1023.75
2018-05-03T08:54:42.432Z,1006.88
2018-05-03T08:55:42.502Z,1001.25
2018-05-03T08:56:42.412Z,1023.75
2018-05-03T08:57:42.415Z,1046.25
2018-05-03T08:58:42.420Z,1074.38
2018-05-03T08:59:42.419Z,1102.50
2018-05-03T09:00:42.435Z,1130.63
2018-05-03T09:01:42.417Z,1141.88
2018-05-03T09:02:42.420Z,1141.88
2018-05-03T09:03:42.421Z,1141.88
2018-05-03T09:04:42.405Z,1153.13
2018-05-03T09:05:42.406Z,1164.38
2018-05-03T09:06:42.410Z,1164.38
2018-05-03T09:07:42.480Z,1158.75
2018-05-03T09:08:42.403Z,1141.88
2018-05-03T09:09:42.407Z,1130.63
2018-05-03T09:10:42.402Z,1141.88
2018-05-03T09:11:42.404Z,1192.50
2018-05-03T09:12:42.401Z,1254.38
2018-05-03T09:13:42.391Z,1321.88
2018-05-03T09:14:42.400Z,1400.63
2018-05-03T09:15:42.401Z,1434.38
2018-05-03T09:16:42.402Z,1451.25
2018-05-03T09:17:42.393Z,1434.38
2018-05-03T09:18:42.418Z,1417.50
2018-05-03T09:19:42.395Z,1428.75
2018-05-03T09:20:42.396Z,1440.00
2018-05-03T09:21:42.399Z,1440.00
2018-05-03T09:22:42.396Z,1445.63
2018-05-03T09:23:42.394Z,1501.88
2018-05-03T09:24:42.392Z,1586.25
2018-05-03T09:25:42.428Z,1710.00
2018-05-03T09:26:42.410Z,1828.13
2018-05-03T09:27:42.411Z,1951.88
2018-05-03T09:28:42.409Z,2036.25
2018-05-03T09:29:42.403Z,2064.38
2018-05-03T09:30:42.394Z,2041.88
2018-05-03T09:31:42.405Z,2075.63
2018-05-03T09:32:42.402Z,2120.63
2018-05-03T09:33:43.223Z,2278.13
2018-05-03T09:34:42.407Z,2250.00
2018-05-03T09:35:42.415Z,2205.00
2018-05-03T09:36:42.423Z,2334.38
2018-05-03T09:37:42.424Z,2210.63
2018-05-03T09:38:42.424Z,2250.00
2018-05-03T09:39:42.439Z,2311.88
2018-05-03T09:40:42.431Z,2210.63
2018-05-03T09:41:42.438Z,2165.63
2018-05-03T09:42:42.467Z,2137.50
2018-05-03T09:43:43.230Z,2120.63
2018-05-03T09:44:42.464Z,2176.88
2018-05-03T09:45:42.478Z,2143.13
2018-05-03T09:46:42.459Z,2126.25
2018-05-03T09:47:42.480Z,2137.50
2018-05-03T09:48:42.470Z,2137.50
2018-05-03T09:49:42.498Z,2131.88
2018-05-03T09:50:42.485Z,2154.38
2018-05-03T09:51:42.473Z,2176.88
2018-05-03T09:52:42.492Z,2109.38
2018-05-03T09:53:42.486Z,2053.13
2018-05-03T09:54:42.504Z,2002.50
2018-05-03T09:55:42.507Z,2058.75
2018-05-03T09:56:42.518Z,2334.38
2018-05-03T09:57:42.513Z,2469.38
2018-05-03T09:58:43.232Z,2795.63
2018-05-03T09:59:42.533Z,2587.50
2018-05-03T10:00:42.528Z,2435.63
2018-05-03T10:01:42.540Z,2542.50
2018-05-03T10:02:42.540Z,2604.38
2018-05-03T10:03:42.550Z,2705.63
2018-05-03T10:04:42.559Z,2716.88
2018-05-03T10:05:42.567Z,3015.00
2018-05-03T10:06:42.570Z,2868.75
2018-05-03T10:07:42.583Z,3369.38
2018-05-03T10:08:42.585Z,3678.75
2018-05-03T10:09:42.597Z,4477.50
2018-05-03T10:10:42.596Z,4365.00
2018-05-03T10:11:42.611Z,4083.75
2018-05-03T10:12:42.615Z,4426.88
2018-05-03T10:13:42.627Z,4561.88
2018-05-03T10:14:43.313Z,4303.13
2018-05-03T10:15:42.646Z,4421.25
2018-05-03T10:16:42.664Z,4426.88
2018-05-03T10:17:42.669Z,4443.75
2018-05-03T10:18:42.687Z,4095.00
2018-05-03T10:19:42.696Z,4291.88
2018-05-03T10:20:42.707Z,4134.38
2018-05-03T10:21:42.719Z,3903.75
2018-05-03T10:22:42.738Z,2818.13
2018-05-03T10:23:42.745Z,2446.88
2018-05-03T10:24:42.770Z,2379.38
2018-05-03T10:25:42.786Z,2514.38
2018-05-03T10:26:42.774Z,3279.38
2018-05-03T10:27:42.796Z,3043.13
2018-05-03T10:28:42.806Z,2986.88
2018-05-03T10:29:42.811Z,3335.63
2018-05-03T10:30:42.825Z,3706.88
2018-05-03T10:31:42.845Z,3774.38
2018-05-03T10:32:42.855Z,4235.63
2018-05-03T10:33:42.866Z,4241.25
2018-05-03T10:34:43.764Z,4381.88
2018-05-03T10:35:42.912Z,4173.75
2018-05-03T10:36:42.906Z,4016.25
2018-05-03T10:37:42.936Z,3718.13
2018-05-03T10:38:42.944Z,3976.88
2018-05-03T10:39:42.933Z,3931.88
2018-05-03T10:40:42.955Z,3965.63
2018-05-03T10:41:42.979Z,3054.38
2018-05-03T10:42:42.983Z,4123.13
2018-05-03T10:43:43.669Z,1636.88
2018-05-03T10:44:43.670Z,1912.50
2018-05-03T10:45:43.672Z,1631.25
2018-05-03T10:46:43.034Z,3397.50
2018-05-03T10:47:43.046Z,3937.50
2018-05-03T10:48:43.052Z,3909.38
2018-05-03T10:49:43.069Z,2441.25
2018-05-03T10:50:43.079Z,1355.63
2018-05-03T10:51:43.098Z,1445.63
2018-05-03T10:52:43.107Z,2784.38
2018-05-03T10:53:43.117Z,2570.63
2018-05-03T10:54:43.116Z,2430.00
2018-05-03T10:55:43.129Z,2587.50
2018-05-03T10:56:43.135Z,3487.50
2018-05-03T10:57:43.145Z,3105.00
2018-05-03T10:58:43.157Z,3037.50
2018-05-03T10:59:43.175Z,3313.13
2018-05-03T11:00:43.176Z,2986.88
2018-05-03T11:01:43.183Z,2109.38
2018-05-03T11:02:43.184Z,1726.88
2018-05-03T11:03:43.204Z,1670.63
2018-05-03T11:04:43.215Z,1895.63
2018-05-03T11:05:43.221Z,2503.13
2018-05-03T11:06:43.232Z,2981.25
2018-05-03T11:07:43.238Z,2846.25
2018-05-03T11:08:43.246Z,2958.75
2018-05-03T11:09:43.259Z,3751.88
2018-05-03T11:10:43.263Z,4061.25
2018-05-03T11:11:43.267Z,2700.00
2018-05-03T11:12:43.280Z,2025.00
2018-05-03T11:13:43.311Z,1901.25
2018-05-03T11:14:43.312Z,1614.38
2018-05-03T11:15:43.313Z,1496.25
2018-05-03T11:16:43.406Z,1524.38
2018-05-03T11:17:43.320Z,1631.25
2018-05-03T11:18:43.332Z,1856.25
2018-05-03T11:19:43.409Z,2013.75
2018-05-03T11:20:43.344Z,2188.13
2018-05-03T11:21:43.349Z,2446.88
2018-05-03T11:22:43.365Z,2025.00
2018-05-03T11:23:43.361Z,1963.13
2018-05-03T11:24:43.368Z,1946.25
2018-05-03T11:25:43.383Z,1906.88
2018-05-03T11:26:43.383Z,1867.50
2018-05-03T11:27:43.389Z,1906.88
2018-05-03T11:28:43.410Z,2030.63
2018-05-03T11:29:43.403Z,2036.25
2018-05-03T11:30:43.425Z,2165.63
2018-05-03T11:31:43.428Z,2221.88
2018-05-03T11:32:43.427Z,2216.25
2018-05-03T11:33:43.441Z,2373.75
2018-05-03T11:34:43.436Z,2345.63
2018-05-03T11:35:43.447Z,2328.75
2018-05-03T11:36:43.568Z,2188.13
2018-05-03T11:37:43.467Z,2323.13
2018-05-03T11:38:43.465Z,3892.50
2018-05-03T11:39:43.488Z,2233.13
2018-05-03T11:40:43.473Z,2171.25
2018-05-03T11:41:43.486Z,2126.25
2018-05-03T11:42:43.500Z,2176.88
2018-05-03T11:43:43.504Z,2278.13
2018-05-03T11:44:43.536Z,2300.63
2018-05-03T11:45:43.512Z,2154.38
2018-05-03T11:46:43.521Z,2238.75
2018-05-03T11:47:43.517Z,2233.13
2018-05-03T11:48:43.609Z,2261.25
2018-05-03T11:49:43.532Z,2188.13
2018-05-03T11:50:43.558Z,2452.50
2018-05-03T11:51:43.546Z,2373.75
2018-05-03T11:52:43.558Z,2778.75
2018-05-03T11:53:43.574Z,2711.25
2018-05-03T11:54:43.567Z,2536.88
2018-05-03T11:55:43.589Z,2154.38
2018-05-03T11:56:43.585Z,2058.75
2018-05-03T11:57:43.589Z,2019.38
2018-05-03T11:58:43.598Z,2120.63
2018-05-03T11:59:43.626Z,2266.88
2018-05-03T12:00:43.641Z,2536.88
2018-05-03T12:01:43.615Z,2323.13
2018-05-03T12:02:43.636Z,2778.75
2018-05-03T12:03:43.649Z,2328.75
2018-05-03T12:04:43.654Z,2081.25
2018-05-03T12:05:43.650Z,2081.25
2018-05-03T12:06:43.656Z,2058.75
2018-05-03T12:07:43.666Z,2019.38
2018-05-03T12:08:43.664Z,2053.13
2018-05-03T12:09:43.678Z,2030.63
2018-05-03T12:10:43.696Z,1906.88
2018-05-03T12:11:43.726Z,1873.13
2018-05-03T12:12:43.711Z,1822.50
2018-05-03T12:13:43.700Z,1828.13
2018-05-03T12:14:43.728Z,1878.75
2018-05-03T12:15:43.734Z,1895.63
2018-05-03T12:16:43.740Z,1906.88
2018-05-03T12:17:43.744Z,1873.13
2018-05-03T12:18:43.732Z,1839.38
2018-05-03T12:19:43.738Z,1850.63
2018-05-03T12:20:43.756Z,1766.25
2018-05-03T12:21:43.758Z,1743.75
2018-05-03T12:22:43.776Z,1726.88
2018-05-03T12:23:43.774Z,1738.13
2018-05-03T12:24:43.789Z,1783.13
2018-05-03T12:25:43.776Z,1805.63
2018-05-03T12:26:43.773Z,1777.50
2018-05-03T12:27:43.780Z,1766.25
2018-05-03T12:28:43.782Z,1755.00
2018-05-03T12:29:43.788Z,1710.00
2018-05-03T12:30:43.809Z,1665.00
2018-05-03T12:31:43.799Z,1636.88
2018-05-03T12:32:43.805Z,1608.75
2018-05-03T12:33:43.821Z,1597.50
2018-05-03T12:34:43.817Z,1614.38
2018-05-03T12:35:43.822Z,1625.63
2018-05-03T12:36:43.832Z,1608.75
2018-05-03T12:37:43.833Z,1586.25
2018-05-03T12:38:43.862Z,1591.88
2018-05-03T12:39:43.839Z,1614.38
2018-05-03T12:40:43.845Z,1636.88
2018-05-03T12:41:43.850Z,1659.38
2018-05-03T12:42:43.855Z,1681.88
2018-05-03T12:43:43.879Z,1704.38
2018-05-03T12:44:43.907Z,1732.50
2018-05-03T12:45:43.875Z,1738.13
2018-05-03T12:46:43.884Z,1704.38
2018-05-03T12:47:43.874Z,1653.75
2018-05-03T12:48:43.880Z,1620.00
2018-05-03T12:49:43.900Z,1580.63
2018-05-03T12:50:43.891Z,1552.50
2018-05-03T12:51:43.935Z,1552.50
2018-05-03T12:52:43.905Z,1552.50
2018-05-03T12:53:43.910Z,1558.13
2018-05-03T12:54:43.910Z,1552.50
2018-05-03T12:55:43.909Z,1535.63
2018-05-03T12:56:43.917Z,1524.38
2018-05-03T12:57:43.923Z,1535.63
2018-05-03T12:58:43.934Z,1575.00
2018-05-03T12:59:43.915Z,1591.88
2018-05-03T13:00:44.002Z,1620.00
2018-05-03T13:01:43.929Z,1631.25
2018-05-03T13:02:43.936Z,1631.25
2018-05-03T13:03:43.931Z,1642.50
2018-05-03T13:04:43.943Z,1620.00
2018-05-03T13:05:43.944Z,1603.13
2018-05-03T13:06:43.947Z,1575.00
2018-05-03T13:07:43.956Z,1569.38
2018-05-03T13:08:43.953Z,1563.75
2018-05-03T13:09:43.960Z,1563.75
2018-05-03T13:10:43.974Z,1541.25
2018-05-03T13:11:43.968Z,1530.00
2018-05-03T13:12:43.973Z,1558.13
2018-05-03T13:13:43.985Z,1575.00
2018-05-03T13:14:43.992Z,1597.50
2018-05-03T13:15:43.990Z,1586.25
2018-05-03T13:16:44.006Z,1563.75
2018-05-03T13:17:43.991Z,1530.00
2018-05-03T13:18:43.993Z,1501.88
2018-05-03T13:19:43.986Z,1507.50
2018-05-03T13:20:44.001Z,1490.63
2018-05-03T13:21:44.007Z,1473.75
2018-05-03T13:22:44.017Z,1462.50
2018-05-03T13:23:44.013Z,1423.13
2018-05-03T13:24:44.015Z,1350.00
2018-05-03T13:25:44.023Z,1271.25
2018-05-03T13:26:44.027Z,1237.50
2018-05-03T13:27:44.040Z,1248.75
2018-05-03T13:28:44.029Z,1243.13
2018-05-03T13:29:44.032Z,1254.38
2018-05-03T13:30:44.052Z,1260.00
2018-05-03T13:31:44.043Z,1226.25
2018-05-03T13:32:44.045Z,1209.38
2018-05-03T13:33:44.031Z,1170.00
2018-05-03T13:34:44.036Z,1108.13
2018-05-03T13:35:44.050Z,1023.75
2018-05-03T13:36:44.079Z,950.63
2018-05-03T13:37:44.052Z,922.50
2018-05-03T13:38:44.054Z,905.63
2018-05-03T13:39:44.059Z,922.50
2018-05-03T13:40:44.063Z,945.00
2018-05-03T13:41:44.060Z,961.88
2018-05-03T13:42:44.060Z,978.75
2018-05-03T13:43:44.092Z,978.75
2018-05-03T13:44:44.080Z,1006.88
2018-05-03T13:45:44.066Z,1046.25
2018-05-03T13:46:44.070Z,1080.00
2018-05-03T13:47:44.095Z,1158.75
2018-05-03T13:48:44.069Z,1108.13
2018-05-03T13:49:44.088Z,1029.38
2018-05-03T13:50:44.075Z,973.13
2018-05-03T13:51:44.070Z,945.00
2018-05-03T13:52:44.158Z,995.63
2018-05-03T13:53:44.077Z,1113.75
2018-05-03T13:54:44.068Z,1085.63
2018-05-03T13:55:44.079Z,1006.88
2018-05-03T13:56:44.086Z,1040.63
2018-05-03T13:57:44.081Z,1113.75
2018-05-03T13:58:44.079Z,1147.50
2018-05-03T13:59:44.079Z,1170.00
2018-05-03T14:00:44.090Z,1175.63
2018-05-03T14:01:44.088Z,1220.63
2018-05-03T14:02:44.082Z,1170.00
2018-05-03T14:03:44.144Z,1057.50
2018-05-03T14:04:44.094Z,1035.00
2018-05-03T14:05:44.101Z,1040.63
2018-05-03T14:06:44.122Z,1091.25
2018-05-03T14:07:44.090Z,1068.75
2018-05-03T14:08:44.098Z,1046.25